createdAt,value
2022-12-08T00:00:31.215Z,142.05
2022-12-08T00:03:00.726Z,139.73
2022-12-08T00:05:46.853Z,174.57
2022-12-08T00:08:32.858Z,170.77
2022-12-08T00:11:04.776Z,162.85
2022-12-08T00:13:34.976Z,93.80
2022-12-08T00:16:05.816Z,110.53
2022-12-08T00:18:36.116Z,93.30
2022-12-08T00:21:05.862Z,73.07
2022-12-08T00:23:35.079Z,97.30
2022-12-08T00:26:05.596Z,67.65
2022-12-08T00:28:35.702Z,90.55
2022-12-08T00:31:12.331Z,95.70
2022-12-08T00:33:41.881Z,94.70
2022-12-08T00:36:13.417Z,119.75
2022-12-08T00:38:45.121Z,108.10
2022-12-08T00:41:17.329Z,113.90
2022-12-08T00:43:47.033Z,85.38
2022-12-08T00:46:17.723Z,117.03
2022-12-08T00:48:47.154Z,93.82
2022-12-08T00:51:16.360Z,112.85
2022-12-08T00:53:45.557Z,114.07
2022-12-08T00:56:14.748Z,130.27
2022-12-08T00:58:44.129Z,120.25
2022-12-08T01:01:13.870Z,99.22
2022-12-08T01:03:45.660Z,89.85
2022-12-08T01:06:15.182Z,115.65
2022-12-08T01:08:44.910Z,96.63
2022-12-08T01:11:16.728Z,116.72
2022-12-08T01:13:46.236Z,57.60
2022-12-08T01:16:22.063Z,86.53
2022-12-08T01:18:53.273Z,60.60
2022-12-08T01:21:23.611Z,110.15
2022-12-08T01:23:52.927Z,109.97
2022-12-08T01:26:22.937Z,54.92
2022-12-08T01:28:52.404Z,82.60
2022-12-08T01:31:23.177Z,92.30
2022-12-08T01:33:53.923Z,87.25
2022-12-08T01:36:26.164Z,89.15
2022-12-08T01:38:56.926Z,69.53
2022-12-08T01:41:29.223Z,62.75
2022-12-08T01:44:01.709Z,98.47
2022-12-08T01:46:33.736Z,122.95
2022-12-08T01:49:09.211Z,74.63
2022-12-08T01:51:44.839Z,74.80
2022-12-08T01:56:49.523Z,55.05
2022-12-08T01:59:19.880Z,32.58
2022-12-08T02:01:49.851Z,33.60
2022-12-08T02:04:20.827Z,52.08
2022-12-08T02:06:51.455Z,38.53
2022-12-08T02:09:22.041Z,56.10
2022-12-08T02:11:52.504Z,63.53
2022-12-08T02:14:21.712Z,46.35
2022-12-08T02:17:01.065Z,38.47
2022-12-08T02:19:58.297Z,39.58
2022-12-08T02:22:35.393Z,53.10
2022-12-08T02:25:14.136Z,44.80
2022-12-08T02:27:49.617Z,47.78
2022-12-08T02:30:24.607Z,18.88
2022-12-08T02:33:27.449Z,39.10
2022-12-08T02:36:01.374Z,36.22
2022-12-08T02:38:39.897Z,21.92
2022-12-08T02:41:20.963Z,39.17
2022-12-08T02:43:57.538Z,46.45
2022-12-08T02:46:33.061Z,44.17
2022-12-08T02:51:37.359Z,35.72
2022-12-08T02:54:08.203Z,40.65
2022-12-08T02:57:02.409Z,29.67
2022-12-08T02:59:46.604Z,45.55
2022-12-08T03:02:43.315Z,33.92
2022-12-08T03:05:24.455Z,37.15
2022-12-08T03:08:03.245Z,23.15
2022-12-08T03:10:38.030Z,24.25
2022-12-08T03:13:13.776Z,30.25
2022-12-08T03:15:45.131Z,28.70
2022-12-08T03:18:17.561Z,19.38
2022-12-08T03:20:48.634Z,23.75
2022-12-08T03:23:21.490Z,31.45
2022-12-08T03:25:56.486Z,51.95
2022-12-08T03:28:26.160Z,33.13
2022-12-08T03:31:00.038Z,39.25
2022-12-08T03:33:33.905Z,40.30
2022-12-08T03:36:06.773Z,40.95
2022-12-08T03:38:45.826Z,48.03
2022-12-08T03:41:21.142Z,42.38
2022-12-08T03:43:51.488Z,43.28
2022-12-08T03:48:50.412Z,37.05
2022-12-08T03:51:20.307Z,33.78
2022-12-08T03:53:52.051Z,49.92
2022-12-08T03:56:26.041Z,55.70
2022-12-08T03:58:56.378Z,37.60
2022-12-08T04:01:27.924Z,55.95
2022-12-08T04:04:00.694Z,26.67
2022-12-08T04:06:30.135Z,43.05
2022-12-08T04:09:01.252Z,48.22
2022-12-08T04:11:30.742Z,49.30
2022-12-08T04:14:00.082Z,39.63
2022-12-08T04:16:30.116Z,27.25
2022-12-08T04:19:01.812Z,39.63
2022-12-08T04:21:31.372Z,43.50
2022-12-08T04:24:03.127Z,45.97
2022-12-08T04:26:32.713Z,25.40
2022-12-08T04:29:05.223Z,18.77
2022-12-08T04:31:34.864Z,35.50
2022-12-08T04:34:12.332Z,42.22
2022-12-08T04:36:42.615Z,57.67
2022-12-08T04:39:13.374Z,39.05
2022-12-08T04:41:42.548Z,50.22
2022-12-08T04:44:12.270Z,37.97
2022-12-08T04:46:44.977Z,31.20
2022-12-08T04:49:27.548Z,37.40
2022-12-08T04:55:16.222Z,45.92
2022-12-08T04:57:51.227Z,30.60
2022-12-08T05:00:29.326Z,41.83
2022-12-08T05:03:06.196Z,62.38
2022-12-08T05:05:37.061Z,55.63
2022-12-08T05:08:09.910Z,44.90
2022-12-08T05:10:40.937Z,42.47
2022-12-08T05:13:10.343Z,53.55
2022-12-08T05:15:39.566Z,49.65
2022-12-08T05:18:09.293Z,39.33
2022-12-08T05:20:40.733Z,52.22
2022-12-08T05:23:10.146Z,59.10
2022-12-08T05:25:44.261Z,60.88
2022-12-08T05:28:40.166Z,42.60
2022-12-08T05:31:03.989Z,46.67
2022-12-08T05:33:36.639Z,42.25
2022-12-08T05:36:07.968Z,36.38
2022-12-08T05:38:37.441Z,48.03
2022-12-08T05:41:08.955Z,42.50
2022-12-08T05:43:59.161Z,43.42
2022-12-08T05:46:30.076Z,34.83
2022-12-08T05:49:01.095Z,44.97
2022-12-08T05:51:30.942Z,43.25
2022-12-08T05:54:00.959Z,50.08
2022-12-08T05:56:31.776Z,43.63
2022-12-08T05:59:01.077Z,43.78
2022-12-08T06:01:32.236Z,40.97
2022-12-08T06:04:03.133Z,47.03
2022-12-08T06:06:33.956Z,43.33
2022-12-08T06:09:04.859Z,51.47
2022-12-08T06:11:36.608Z,35.97
2022-12-08T06:14:06.431Z,44.70
2022-12-08T06:16:37.024Z,53.05
2022-12-08T06:19:06.340Z,50.42
2022-12-08T06:21:35.569Z,44.67
2022-12-08T06:24:05.205Z,49.13
2022-12-08T06:26:36.837Z,34.33
2022-12-08T06:29:07.034Z,36.35
2022-12-08T06:31:36.195Z,47.13
2022-12-08T06:34:06.566Z,49.03
2022-12-08T06:36:38.814Z,32.17
2022-12-08T06:39:09.054Z,43.42
2022-12-08T06:41:59.766Z,40.72
2022-12-08T06:44:29.040Z,50.65
2022-12-08T06:46:58.193Z,42.20
2022-12-08T06:49:27.327Z,52.05
2022-12-08T06:51:56.562Z,39.85
2022-12-08T06:54:25.954Z,39.45
2022-12-08T06:56:59.344Z,51.15
2022-12-08T06:59:28.551Z,67.22
2022-12-08T07:01:57.788Z,46.72
2022-12-08T07:04:27.925Z,42.95
2022-12-08T07:06:57.060Z,37.63
2022-12-08T07:09:26.549Z,48.05
2022-12-08T07:11:57.247Z,59.60
2022-12-08T07:14:26.568Z,55.53
2022-12-08T07:16:55.832Z,44.97
2022-12-08T07:19:26.043Z,35.92
2022-12-08T07:21:55.335Z,44.83
2022-12-08T07:24:24.722Z,52.25
2022-12-08T07:27:03.346Z,44.30
2022-12-08T07:29:34.368Z,43.90
2022-12-08T07:32:03.808Z,38.78
2022-12-08T07:34:34.179Z,47.92
2022-12-08T07:37:06.205Z,53.70
2022-12-08T07:39:35.579Z,39.38
2022-12-08T07:42:05.177Z,49.45
2022-12-08T07:44:36.408Z,50.25
2022-12-08T07:47:05.934Z,39.22
2022-12-08T07:49:35.492Z,37.00
2022-12-08T07:52:07.446Z,30.70
2022-12-08T07:54:40.807Z,36.13
2022-12-08T07:57:11.844Z,31.60
2022-12-08T07:59:45.862Z,46.67
2022-12-08T08:02:26.912Z,37.60
2022-12-08T08:04:56.454Z,42.38
2022-12-08T08:07:25.736Z,44.53
2022-12-08T08:09:55.179Z,45.17
2022-12-08T08:12:32.536Z,48.08
2022-12-08T08:15:05.461Z,43.38
2022-12-08T08:17:35.414Z,29.33
2022-12-08T08:20:07.476Z,39.63
2022-12-08T08:22:37.290Z,41.70
2022-12-08T08:25:08.263Z,35.85
2022-12-08T08:27:37.561Z,43.85
2022-12-08T08:30:15.340Z,36.05
2022-12-08T08:32:47.526Z,39.47
2022-12-08T08:35:17.090Z,45.03
2022-12-08T08:37:49.077Z,38.65
2022-12-08T08:40:19.425Z,47.55
2022-12-08T08:42:48.595Z,39.17
2022-12-08T08:45:27.247Z,44.33
2022-12-08T08:47:56.501Z,57.10
2022-12-08T08:50:26.120Z,44.78
2022-12-08T08:52:55.236Z,33.95
2022-12-08T08:55:25.361Z,40.55
2022-12-08T08:57:54.597Z,37.58
2022-12-08T09:00:25.759Z,49.90
2022-12-08T09:02:55.032Z,55.28
2022-12-08T09:05:24.228Z,49.42
2022-12-08T09:07:53.523Z,55.92
2022-12-08T09:10:22.861Z,53.80
2022-12-08T09:12:52.470Z,57.05
2022-12-08T09:15:21.781Z,38.78
2022-12-08T09:17:52.402Z,28.80
2022-12-08T09:20:21.699Z,42.00
2022-12-08T09:22:50.795Z,58.53
2022-12-08T09:25:21.162Z,57.63
2022-12-08T09:27:50.449Z,64.50
2022-12-08T09:30:21.020Z,51.00
2022-12-08T09:32:50.171Z,43.03
2022-12-08T09:35:20.789Z,55.20
2022-12-08T09:37:51.124Z,47.38
2022-12-08T09:40:50.583Z,44.72
2022-12-08T09:43:39.173Z,60.17
2022-12-08T09:46:12.387Z,44.22
2022-12-08T09:48:46.938Z,67.60
2022-12-08T09:51:20.764Z,57.78
2022-12-08T09:53:54.176Z,58.88
2022-12-08T09:56:33.462Z,51.47
2022-12-08T09:59:19.660Z,57.63
2022-12-08T10:01:49.081Z,50.95
2022-12-08T10:04:26.536Z,58.47
2022-12-08T10:07:06.513Z,49.80
2022-12-08T10:09:43.897Z,44.92
2022-12-08T10:12:30.008Z,44.05
2022-12-08T10:15:32.275Z,71.32
2022-12-08T10:18:09.665Z,58.53
2022-12-08T10:20:41.998Z,54.80
2022-12-08T10:23:25.275Z,69.72
2022-12-08T10:26:01.472Z,61.67
2022-12-08T10:28:46.640Z,72.70
2022-12-08T10:31:23.354Z,39.85
2022-12-08T10:33:59.695Z,67.95
2022-12-08T10:36:47.083Z,60.03
2022-12-08T10:39:40.702Z,78.15
2022-12-08T10:45:36.598Z,55.38
2022-12-08T10:48:09.067Z,48.83
2022-12-08T10:50:43.981Z,76.75
2022-12-08T10:56:19.604Z,57.35
2022-12-08T10:58:50.402Z,57.45
2022-12-08T11:01:35.799Z,64.78
2022-12-08T11:04:08.256Z,40.28
2022-12-08T11:06:39.261Z,64.03
2022-12-08T11:09:27.800Z,54.00
2022-12-08T11:12:07.719Z,61.33
2022-12-08T11:14:51.524Z,56.58
2022-12-08T11:17:28.298Z,62.60
2022-12-08T11:20:02.038Z,61.60
2022-12-08T11:22:34.914Z,50.90
2022-12-08T11:25:12.529Z,51.78
2022-12-08T11:27:47.454Z,68.15
2022-12-08T11:30:20.935Z,44.15
2022-12-08T11:33:01.743Z,66.07
2022-12-08T11:35:37.622Z,67.88
2022-12-08T11:38:28.993Z,76.07
2022-12-08T11:41:04.521Z,51.67
2022-12-08T11:43:56.149Z,58.95
2022-12-08T11:46:34.754Z,74.75
2022-12-08T11:49:22.433Z,52.00
2022-12-08T11:52:02.637Z,42.63
2022-12-08T11:54:37.317Z,69.13
2022-12-08T11:57:31.726Z,86.40
2022-12-08T12:00:07.896Z,68.78
2022-12-08T12:02:46.210Z,71.20
2022-12-08T12:05:47.633Z,77.72
2022-12-08T12:08:33.676Z,60.95
2022-12-08T12:11:38.430Z,50.53
2022-12-08T12:17:01.995Z,41.95
2022-12-08T12:19:38.222Z,88.13
2022-12-08T12:22:27.639Z,72.18
2022-12-08T12:24:57.262Z,64.10
2022-12-08T12:27:32.958Z,72.03
2022-12-08T12:33:04.480Z,61.35
2022-12-08T12:35:38.441Z,63.30
2022-12-08T12:38:32.150Z,56.65
2022-12-08T12:41:04.196Z,64.20
2022-12-08T12:43:42.430Z,82.63
2022-12-08T12:46:58.507Z,74.88
2022-12-08T12:50:11.779Z,64.22
2022-12-08T12:52:50.820Z,62.55
2022-12-08T12:55:53.064Z,70.03
2022-12-08T12:58:43.136Z,59.90
2022-12-08T13:01:54.665Z,58.85
2022-12-08T13:04:34.292Z,60.42
2022-12-08T13:07:05.806Z,43.13
2022-12-08T13:09:39.685Z,94.05
2022-12-08T13:12:14.519Z,74.93
2022-12-08T13:14:49.238Z,94.00
2022-12-08T13:17:30.923Z,124.20
2022-12-08T13:20:03.174Z,135.63
2022-12-08T13:23:04.311Z,97.25
2022-12-08T13:25:51.662Z,114.30
2022-12-08T13:28:27.491Z,157.27
2022-12-08T13:30:58.508Z,130.93
2022-12-08T13:33:37.626Z,117.35
2022-12-08T13:36:24.102Z,115.32
2022-12-08T13:38:58.462Z,115.68
2022-12-08T13:41:35.205Z,187.68
2022-12-08T13:45:03.588Z,179.68
2022-12-08T13:58:41.598Z,96.18
2022-12-08T14:01:17.259Z,157.65
2022-12-08T14:06:45.331Z,108.85
2022-12-08T14:09:18.234Z,100.63
2022-12-08T14:11:53.872Z,99.50
2022-12-08T14:17:16.298Z,92.53
2022-12-08T14:19:54.148Z,105.97
2022-12-08T14:22:24.683Z,121.20
2022-12-08T14:24:55.512Z,165.70
2022-12-08T14:27:29.417Z,131.90
2022-12-08T14:30:00.289Z,105.20
2022-12-08T14:32:32.092Z,148.57
2022-12-08T14:35:04.595Z,162.80
2022-12-08T14:37:35.810Z,101.88
2022-12-08T14:40:10.177Z,151.60
2022-12-08T14:42:49.122Z,183.60
2022-12-08T14:45:21.143Z,154.02
2022-12-08T14:47:51.596Z,120.75
2022-12-08T14:50:42.261Z,177.32
2022-12-08T14:53:16.819Z,179.88
2022-12-08T14:55:48.058Z,131.65
2022-12-08T14:58:28.289Z,138.88
2022-12-08T15:01:00.163Z,147.18
2022-12-08T15:03:32.304Z,126.53
2022-12-08T15:06:06.611Z,166.07
2022-12-08T15:08:37.007Z,162.30
2022-12-08T15:11:31.848Z,223.25
2022-12-08T15:14:02.834Z,241.77
2022-12-08T15:16:40.758Z,236.45
2022-12-08T15:19:30.200Z,292.90
2022-12-08T15:22:01.543Z,400.00
2022-12-08T15:24:32.479Z,296.90
2022-12-08T15:27:01.683Z,339.10
2022-12-08T15:29:33.119Z,255.82
2022-12-08T15:32:03.773Z,388.85
2022-12-08T15:34:34.194Z,335.63
2022-12-08T15:37:05.642Z,237.63
2022-12-08T15:39:36.390Z,364.80
2022-12-08T15:42:12.753Z,268.52
2022-12-08T15:44:43.889Z,174.95
2022-12-08T15:47:18.573Z,172.90
2022-12-08T15:49:48.655Z,213.93
2022-12-08T15:52:19.029Z,126.80
2022-12-08T15:54:49.480Z,189.80
2022-12-08T15:58:04.061Z,219.10
2022-12-08T16:00:51.645Z,256.52
2022-12-08T16:07:04.716Z,190.35
2022-12-08T16:09:12.700Z,230.10
2022-12-08T16:12:08.771Z,228.63
2022-12-08T16:17:36.419Z,236.15
2022-12-08T16:20:07.462Z,219.45
2022-12-08T16:22:56.882Z,186.30
2022-12-08T16:25:28.756Z,171.20
2022-12-08T16:28:23.301Z,194.07
2022-12-08T16:30:52.188Z,151.45
2022-12-08T16:33:48.256Z,176.88
2022-12-08T16:36:17.454Z,216.50
2022-12-08T16:38:59.860Z,202.23
2022-12-08T16:41:46.130Z,238.40
2022-12-08T16:44:15.689Z,177.13
2022-12-08T16:46:46.274Z,238.68
2022-12-08T16:49:21.059Z,174.55
2022-12-08T16:51:50.319Z,227.52
2022-12-08T16:54:20.773Z,152.23
2022-12-08T16:56:53.033Z,262.88
2022-12-08T16:59:23.282Z,228.88
2022-12-08T17:01:52.493Z,199.77
2022-12-08T17:04:31.387Z,199.23
2022-12-08T17:07:02.481Z,223.77
2022-12-08T17:09:34.104Z,205.52
2022-12-08T17:12:06.447Z,155.50
2022-12-08T17:14:36.802Z,180.05
2022-12-08T17:17:06.575Z,167.40
2022-12-08T17:19:37.482Z,133.30
2022-12-08T17:22:06.728Z,247.48
2022-12-08T17:24:36.011Z,198.50
2022-12-08T17:27:06.833Z,213.77
2022-12-08T17:29:36.792Z,219.55
2022-12-08T17:32:06.290Z,190.77
2022-12-08T17:34:36.948Z,177.93
2022-12-08T17:37:06.148Z,230.85
2022-12-08T17:39:35.236Z,198.57
2022-12-08T17:42:04.553Z,179.23
2022-12-08T17:44:35.701Z,229.40
2022-12-08T17:47:05.806Z,256.23
2022-12-08T17:49:36.592Z,182.98
2022-12-08T17:52:08.535Z,247.60
2022-12-08T17:54:37.797Z,258.10
2022-12-08T17:57:07.331Z,216.68
2022-12-08T17:59:36.520Z,221.88
2022-12-08T18:02:06.078Z,214.35
2022-12-08T18:04:36.865Z,175.75
2022-12-08T18:07:06.149Z,229.88
2022-12-08T18:09:35.438Z,173.57
2022-12-08T18:12:04.670Z,154.63
2022-12-08T18:14:34.007Z,163.75
2022-12-08T18:17:03.442Z,162.77
2022-12-08T18:19:32.797Z,170.18
2022-12-08T18:22:04.489Z,166.98
2022-12-08T18:24:33.698Z,179.05
2022-12-08T18:27:02.825Z,180.07
2022-12-08T18:29:32.109Z,143.07
2022-12-08T18:32:01.337Z,167.85
2022-12-08T18:34:30.543Z,153.00
2022-12-08T18:36:59.830Z,174.00
2022-12-08T18:39:31.953Z,160.00
2022-12-08T18:42:03.071Z,130.05
2022-12-08T18:44:33.213Z,143.18
2022-12-08T18:47:02.381Z,131.70
2022-12-08T18:49:31.493Z,112.13
2022-12-08T18:52:01.629Z,151.75
2022-12-08T18:54:58.073Z,133.57
2022-12-08T18:57:21.459Z,145.70
2022-12-08T18:59:50.753Z,168.13
2022-12-08T19:02:20.249Z,160.30
2022-12-08T19:04:49.506Z,125.65
2022-12-08T19:07:19.053Z,136.32
2022-12-08T19:09:49.677Z,104.78
2022-12-08T19:12:19.079Z,132.85
2022-12-08T19:14:48.364Z,148.45
2022-12-08T19:17:17.710Z,179.60
2022-12-08T19:19:46.900Z,101.47
2022-12-08T19:22:16.164Z,117.57
2022-12-08T19:24:45.568Z,135.40
2022-12-08T19:27:16.164Z,121.63
2022-12-08T19:29:45.432Z,120.13
2022-12-08T19:32:14.706Z,126.43
2022-12-08T19:34:44.021Z,124.53
2022-12-08T19:37:13.454Z,89.07
2022-12-08T19:39:59.887Z,132.65
2022-12-08T19:42:47.697Z,141.77
2022-12-08T19:45:20.267Z,125.22
2022-12-08T19:47:50.167Z,121.30
2022-12-08T19:50:36.648Z,121.80
2022-12-08T19:53:07.164Z,150.93
2022-12-08T19:55:36.843Z,154.15
2022-12-08T19:58:08.406Z,135.05
2022-12-08T20:00:39.683Z,153.30
2022-12-08T20:03:09.305Z,156.13
2022-12-08T20:05:38.964Z,172.93
2022-12-08T20:08:08.368Z,159.63
2022-12-08T20:10:39.799Z,133.98
2022-12-08T20:13:28.434Z,169.65
2022-12-08T20:15:57.978Z,163.05
2022-12-08T20:18:28.969Z,111.28
2022-12-08T20:20:58.651Z,155.27
2022-12-08T20:23:27.893Z,187.93
2022-12-08T20:25:57.124Z,152.00
2022-12-08T20:28:27.870Z,163.50
2022-12-08T20:30:57.182Z,148.93
2022-12-08T20:33:54.873Z,164.90
2022-12-08T20:36:26.224Z,170.05
2022-12-08T20:38:57.433Z,180.68
2022-12-08T20:41:26.930Z,131.23
2022-12-08T20:44:08.135Z,152.18
2022-12-08T20:46:37.626Z,130.88
2022-12-08T20:49:09.884Z,208.80
2022-12-08T20:51:39.157Z,158.43
2022-12-08T20:54:22.652Z,179.27
2022-12-08T20:56:51.995Z,153.60
2022-12-08T20:59:22.991Z,122.35
2022-12-08T21:01:54.893Z,139.38
2022-12-08T21:04:24.731Z,141.32
2022-12-08T21:06:54.220Z,109.50
2022-12-08T21:09:23.652Z,119.82
2022-12-08T21:11:53.124Z,78.75
2022-12-08T21:14:23.911Z,137.32
2022-12-08T21:16:54.877Z,124.35
2022-12-08T21:19:24.414Z,119.32
2022-12-08T21:21:53.828Z,158.13
2022-12-08T21:24:23.142Z,165.25
2022-12-08T21:26:52.442Z,130.00
2022-12-08T21:29:23.128Z,167.38
2022-12-08T21:31:52.468Z,151.20
2022-12-08T21:34:21.838Z,172.13
2022-12-08T21:36:51.077Z,144.88
2022-12-08T21:39:20.504Z,122.57
2022-12-08T21:42:15.339Z,122.60
2022-12-08T21:44:46.153Z,113.65
2022-12-08T21:47:16.434Z,130.80
2022-12-08T21:49:45.694Z,114.30
2022-12-08T21:52:15.149Z,87.90
2022-12-08T21:54:44.354Z,95.25
2022-12-08T21:57:13.876Z,103.97
2022-12-08T21:59:43.487Z,81.03
2022-12-08T22:02:20.778Z,98.50
2022-12-08T22:04:58.784Z,85.80
2022-12-08T22:07:28.042Z,104.00
2022-12-08T22:09:57.220Z,123.00
2022-12-08T22:12:26.466Z,139.80
2022-12-08T22:14:55.717Z,224.43
2022-12-08T22:17:26.735Z,150.02
2022-12-08T22:19:56.015Z,131.65
2022-12-08T22:22:25.306Z,100.55
2022-12-08T22:24:55.489Z,94.68
2022-12-08T22:27:24.763Z,149.27
2022-12-08T22:29:55.579Z,116.28
2022-12-08T22:32:26.525Z,94.05
2022-12-08T22:34:55.768Z,71.70
2022-12-08T22:37:25.190Z,121.43
2022-12-08T22:39:54.466Z,103.13
2022-12-08T22:42:23.602Z,116.30
2022-12-08T22:44:52.720Z,151.30
2022-12-08T22:47:21.934Z,110.90
2022-12-08T22:49:52.546Z,102.18
2022-12-08T22:52:21.811Z,120.47
2022-12-08T22:54:51.257Z,140.27
2022-12-08T22:57:20.709Z,116.13
2022-12-08T22:59:49.849Z,126.43
2022-12-08T23:02:19.252Z,106.88
2022-12-08T23:04:48.737Z,129.73
2022-12-08T23:07:22.956Z,131.27
2022-12-08T23:09:52.824Z,125.35
2022-12-08T23:12:22.021Z,132.07
2022-12-08T23:14:51.181Z,82.43
2022-12-08T23:17:21.498Z,76.43
2022-12-08T23:19:50.958Z,149.60
2022-12-08T23:22:22.992Z,117.25
2022-12-08T23:24:52.297Z,85.75
2022-12-08T23:27:21.506Z,55.67
2022-12-08T23:29:50.714Z,113.60
2022-12-08T23:32:20.011Z,91.75
2022-12-08T23:34:49.510Z,116.38
2022-12-08T23:37:18.753Z,97.68
2022-12-08T23:39:49.418Z,128.57
2022-12-08T23:42:18.638Z,141.10
2022-12-08T23:44:47.843Z,124.05
2022-12-08T23:47:17.223Z,147.65
2022-12-08T23:49:46.648Z,160.80
2022-12-08T23:52:16.216Z,164.32
2022-12-08T23:54:45.611Z,148.48
2022-12-08T23:57:16.384Z,253.98
2022-12-08T23:59:45.699Z,215.23
